Fort Sheridan, Illinois
Current Conditions -  °F | °C
As of 6:17 AM on Friday 31 Oct 2014 (Local Time) from KPWK Reporting Station
Broken Clouds Broken Clouds  
Wind Chill: 28°   Ceiling: 3000
Heat Index: 38°   Visibility: 10mi
Dew Point: 27°   Wind: 21mph
Humidity: 65%   Direction: 330°NNW
Pressure: 30.09"   Gusts: 29mph
Location:  42.22°N, 87.81°W
Report Text: KPWK 311117Z 33018G25KT 10SM BKN030 BKN085 03/M03 A3009 RMK AO2 T00331028
Loading
Personal Weather Stations






























Interactive Weather Map
Tropical Storm Tracking
New forecast layout! Learn more

10-Day Weather Forecast

Advertisements
Track Severe Weather on mobile